createdAt,value
2023-05-04T00:00:08.589Z,101874.41
2023-05-04T00:02:10.424Z,101876.38
2023-05-04T00:04:12.760Z,101866.84
2023-05-04T00:06:15.203Z,101870.06
2023-05-04T00:08:17.776Z,101871.94
2023-05-04T00:10:19.907Z,101868.75
2023-05-04T00:12:21.726Z,101865.06
2023-05-04T00:14:23.492Z,101862.72
2023-05-04T00:16:26.162Z,101857.72
2023-05-04T00:18:27.889Z,101856.56
2023-05-04T00:20:29.583Z,101850.38
2023-05-04T00:22:31.600Z,101845.97
2023-05-04T00:24:33.531Z,101841.00
2023-05-04T00:26:37.565Z,101839.50
2023-05-04T00:28:39.531Z,101838.19
2023-05-04T00:30:41.566Z,101840.03
2023-05-04T00:32:43.698Z,101840.13
2023-05-04T00:34:45.712Z,101834.72
2023-05-04T00:36:47.446Z,101829.63
2023-05-04T00:38:51.874Z,101836.91
2023-05-04T00:40:53.744Z,101823.31
2023-05-04T00:42:55.724Z,101826.78
2023-05-04T00:44:57.511Z,101813.66
2023-05-04T00:46:59.423Z,101811.41
2023-05-04T00:49:02.467Z,101816.03
2023-05-04T00:51:04.781Z,101812.09
2023-05-04T00:53:10.810Z,101810.06
2023-05-04T00:55:14.572Z,101807.81
2023-05-04T00:57:17.420Z,101794.69
2023-05-04T00:59:19.996Z,101798.81
2023-05-04T01:01:22.485Z,101801.44
2023-05-04T01:03:26.259Z,101798.38
2023-05-04T01:05:34.756Z,101788.84
2023-05-04T01:07:56.794Z,101786.38
2023-05-04T01:10:04.082Z,101790.22
2023-05-04T01:12:18.242Z,101784.78
2023-05-04T01:14:22.278Z,101777.50
2023-05-04T01:16:24.086Z,101775.66
2023-05-04T01:18:26.392Z,101773.16
2023-05-04T01:20:28.525Z,101769.00
2023-05-04T01:22:32.623Z,101765.97
2023-05-04T01:24:34.660Z,101767.13
2023-05-04T01:26:41.807Z,101765.50
2023-05-04T01:28:59.698Z,101759.78
2023-05-04T01:31:02.818Z,101753.09
2023-05-04T01:33:04.931Z,101748.88
2023-05-04T01:35:08.179Z,101750.47
2023-05-04T01:37:10.516Z,101747.19
2023-05-04T01:39:12.279Z,101745.56
2023-05-04T01:41:14.015Z,101743.13
2023-05-04T01:43:15.754Z,101749.31
2023-05-04T01:45:17.499Z,101741.25
2023-05-04T01:47:19.228Z,101735.44
2023-05-04T01:49:20.948Z,101738.53
2023-05-04T01:51:22.673Z,101737.41
2023-05-04T01:53:24.632Z,101729.78
2023-05-04T01:55:26.460Z,101725.06
2023-05-04T01:57:28.440Z,101725.13
2023-05-04T01:59:30.618Z,101725.31
2023-05-04T02:01:32.337Z,101726.66
2023-05-04T02:03:34.167Z,101725.06
2023-05-04T02:05:36.319Z,101720.31
2023-05-04T02:07:38.145Z,101723.56
2023-05-04T02:09:39.975Z,101725.91
2023-05-04T02:11:43.400Z,101722.56
2023-05-04T02:13:45.155Z,101725.47
2023-05-04T02:15:49.462Z,101716.69
2023-05-04T02:17:51.378Z,101718.25
2023-05-04T02:19:53.163Z,101709.38
2023-05-04T02:21:54.861Z,101715.63
2023-05-04T02:23:56.627Z,101710.09
2023-05-04T02:25:58.399Z,101711.91
2023-05-04T02:28:00.212Z,101710.56
2023-05-04T02:30:01.995Z,101708.81
2023-05-04T02:32:04.117Z,101701.22
2023-05-04T02:34:06.137Z,101706.81
2023-05-04T02:36:10.903Z,101706.19
2023-05-04T02:38:12.634Z,101708.13
2023-05-04T02:40:14.446Z,101703.63
2023-05-04T02:42:16.440Z,101701.78
2023-05-04T02:44:18.132Z,101687.19
2023-05-04T02:46:20.255Z,101684.16
2023-05-04T02:48:22.063Z,101676.44
2023-05-04T02:50:23.888Z,101667.56
2023-05-04T02:52:25.695Z,101671.06
2023-05-04T02:54:27.556Z,101668.44
2023-05-04T02:56:29.252Z,101665.16
2023-05-04T02:58:31.028Z,101665.97
2023-05-04T03:00:32.845Z,101665.09
2023-05-04T03:02:34.937Z,101665.91
2023-05-04T03:04:37.116Z,101669.59
2023-05-04T03:06:39.338Z,101671.94
2023-05-04T03:08:41.592Z,101663.28
2023-05-04T03:10:43.701Z,101662.47
2023-05-04T03:12:45.659Z,101653.03
2023-05-04T03:14:47.410Z,101652.56
2023-05-04T03:16:49.459Z,101656.06
2023-05-04T03:21:10.914Z,101649.22
2023-05-04T03:23:12.622Z,101649.44
2023-05-04T03:25:14.497Z,101645.81
2023-05-04T03:27:16.356Z,101646.91
2023-05-04T03:29:18.268Z,101643.38
2023-05-04T03:31:20.053Z,101640.97
2023-05-04T03:33:21.829Z,101638.22
2023-05-04T03:35:24.889Z,101639.69
2023-05-04T03:37:27.147Z,101644.13
2023-05-04T03:39:28.929Z,101637.97
2023-05-04T03:41:30.828Z,101632.03
2023-05-04T03:43:32.850Z,101632.63
2023-05-04T03:45:34.652Z,101628.63
2023-05-04T03:47:36.491Z,101627.09
2023-05-04T03:49:38.224Z,101612.56
2023-05-04T03:51:40.172Z,101610.69
2023-05-04T03:53:43.420Z,101607.53
2023-05-04T03:55:46.535Z,101602.88
2023-05-04T03:57:48.207Z,101606.38
2023-05-04T03:59:50.920Z,101608.91
2023-05-04T04:01:53.490Z,101598.72
2023-05-04T04:03:55.533Z,101602.56
2023-05-04T04:05:57.755Z,101591.16
2023-05-04T04:07:59.590Z,101596.75
2023-05-04T04:10:01.345Z,101585.28
2023-05-04T04:12:03.256Z,101584.50
2023-05-04T04:14:08.164Z,101589.94
2023-05-04T04:16:09.981Z,101585.56
2023-05-04T04:18:11.752Z,101588.25
2023-05-04T04:20:14.036Z,101578.28
2023-05-04T04:22:15.796Z,101586.19
2023-05-04T04:24:17.508Z,101590.81
2023-05-04T04:26:20.512Z,101586.50
2023-05-04T04:28:22.238Z,101570.22
2023-05-04T04:30:23.980Z,101574.09
2023-05-04T04:32:25.798Z,101575.06
2023-05-04T04:34:27.557Z,101576.94
2023-05-04T04:36:29.587Z,101573.84
2023-05-04T04:38:31.509Z,101568.69
2023-05-04T04:40:33.303Z,101572.09
2023-05-04T04:42:35.075Z,101577.28
2023-05-04T04:44:37.550Z,101579.59
2023-05-04T04:46:39.296Z,101579.59
2023-05-04T04:48:41.459Z,101579.69
2023-05-04T04:50:43.177Z,101568.78
2023-05-04T04:52:45.945Z,101578.22
2023-05-04T04:54:47.606Z,101567.13
2023-05-04T04:56:49.393Z,101576.25
2023-05-04T04:58:52.068Z,101568.00
2023-05-04T05:00:58.489Z,101568.00
2023-05-04T05:03:03.346Z,101563.81
2023-05-04T05:05:06.025Z,101558.78
2023-05-04T05:07:09.034Z,101552.63
2023-05-04T05:09:11.846Z,101558.72
2023-05-04T05:11:13.555Z,101556.53
2023-05-04T05:13:15.331Z,101560.69
2023-05-04T05:15:17.277Z,101561.66
2023-05-04T05:17:20.208Z,101558.53
2023-05-04T05:19:22.106Z,101548.34
2023-05-04T05:21:24.002Z,101548.63
2023-05-04T05:23:25.685Z,101542.78
2023-05-04T05:25:28.060Z,101551.81
2023-05-04T05:27:29.926Z,101543.41
2023-05-04T05:29:31.713Z,101539.44
2023-05-04T05:31:33.714Z,101543.03
2023-05-04T05:33:35.551Z,101535.34
2023-05-04T05:35:37.275Z,101529.84
2023-05-04T05:37:39.089Z,101527.31
2023-05-04T05:39:42.772Z,101523.25
2023-05-04T05:41:47.056Z,101517.56
2023-05-04T05:43:48.754Z,101526.53
2023-05-04T05:45:50.676Z,101524.16
2023-05-04T05:47:52.559Z,101520.31
2023-05-04T05:49:54.708Z,101515.63
2023-05-04T05:51:56.687Z,101514.16
2023-05-04T05:54:04.001Z,101507.16
2023-05-04T05:56:06.529Z,101499.41
2023-05-04T05:58:08.773Z,101497.03
2023-05-04T06:00:12.788Z,101496.19
2023-05-04T06:02:17.586Z,101484.28
2023-05-04T06:04:19.646Z,101490.66
2023-05-04T06:06:21.546Z,101478.63
2023-05-04T06:08:23.338Z,101482.91
2023-05-04T06:10:25.258Z,101484.81
2023-05-04T06:12:27.096Z,101482.00
2023-05-04T06:14:29.011Z,101474.66
2023-05-04T06:16:30.902Z,101474.00
2023-05-04T06:18:33.011Z,101474.44
2023-05-04T06:20:35.083Z,101475.56
2023-05-04T06:22:36.971Z,101462.81
2023-05-04T06:24:38.857Z,101463.84
2023-05-04T06:26:40.839Z,101466.63
2023-05-04T06:28:42.829Z,101459.88
2023-05-04T06:30:45.206Z,101459.84
2023-05-04T06:32:47.307Z,101454.03
2023-05-04T06:34:52.979Z,101458.63
2023-05-04T06:36:55.231Z,101452.00
2023-05-04T06:38:58.379Z,101451.38
2023-05-04T06:41:00.286Z,101435.94
2023-05-04T06:43:04.633Z,101433.78
2023-05-04T06:45:07.454Z,101422.94
2023-05-04T06:47:09.432Z,101425.06
2023-05-04T06:49:12.425Z,101411.69
2023-05-04T06:51:14.644Z,101406.06
2023-05-04T06:53:19.785Z,101411.53
2023-05-04T06:55:21.833Z,101396.91
2023-05-04T06:57:23.907Z,101402.63
2023-05-04T06:59:26.375Z,101400.31
2023-05-04T07:01:28.631Z,101403.00
2023-05-04T07:03:30.905Z,101410.84
2023-05-04T07:05:38.680Z,101399.63
2023-05-04T07:07:40.773Z,101402.84
2023-05-04T07:09:44.094Z,101393.66
2023-05-04T07:11:46.589Z,101387.72
2023-05-04T07:13:48.842Z,101390.38
2023-05-04T07:15:53.404Z,101381.19
2023-05-04T07:17:55.413Z,101387.09
2023-05-04T07:19:57.509Z,101371.19
2023-05-04T07:22:00.568Z,101357.41
2023-05-04T07:24:02.849Z,101359.22
2023-05-04T07:26:05.322Z,101356.22
2023-05-04T07:28:07.426Z,101351.09
2023-05-04T07:30:09.735Z,101357.09
2023-05-04T07:32:11.891Z,101353.66
2023-05-04T07:34:13.945Z,101358.19
2023-05-04T07:36:15.989Z,101365.28
2023-05-04T07:38:17.914Z,101373.88
2023-05-04T07:40:20.446Z,101362.34
2023-05-04T07:42:23.672Z,101373.53
2023-05-04T07:44:25.647Z,101367.16
2023-05-04T07:46:27.490Z,101374.44
2023-05-04T07:48:29.333Z,101366.84
2023-05-04T07:50:31.566Z,101366.81
2023-05-04T07:52:33.531Z,101367.50
2023-05-04T07:54:36.531Z,101372.91
2023-05-04T07:56:38.839Z,101381.59
2023-05-04T07:58:41.687Z,101383.56
2023-05-04T08:00:43.742Z,101382.19
2023-05-04T08:02:46.338Z,101384.03
2023-05-04T08:04:48.516Z,101377.31
2023-05-04T08:06:51.044Z,101366.13
2023-05-04T08:08:53.129Z,101366.31
2023-05-04T08:11:02.025Z,101371.19
2023-05-04T08:13:10.527Z,101367.22
2023-05-04T08:15:12.735Z,101375.13
2023-05-04T08:17:14.584Z,101379.44
2023-05-04T08:19:16.447Z,101369.09
2023-05-04T08:21:18.658Z,101369.31
2023-05-04T08:23:20.629Z,101378.84
2023-05-04T08:25:22.893Z,101385.25
2023-05-04T08:27:24.750Z,101375.81
2023-05-04T08:29:26.723Z,101374.41
2023-05-04T08:31:28.739Z,101371.13
2023-05-04T08:33:33.669Z,101378.81
2023-05-04T08:35:35.837Z,101371.72
2023-05-04T08:37:38.159Z,101369.38
2023-05-04T08:39:41.966Z,101375.81
2023-05-04T08:41:44.519Z,101374.19
2023-05-04T08:43:46.919Z,101370.66
2023-05-04T08:45:49.856Z,101371.50
2023-05-04T08:47:52.208Z,101365.25
2023-05-04T08:49:57.359Z,101369.03
2023-05-04T08:52:00.733Z,101346.72
2023-05-04T08:54:07.352Z,101344.31
2023-05-04T08:56:12.573Z,101331.47
2023-05-04T08:58:17.576Z,101309.97
2023-05-04T09:00:20.772Z,101318.63
2023-05-04T09:02:24.425Z,101310.03
2023-05-04T09:04:29.225Z,101305.00
2023-05-04T09:06:32.210Z,101303.31
2023-05-04T09:08:34.732Z,101304.16
2023-05-04T09:10:37.045Z,101287.03
2023-05-04T09:12:39.069Z,101292.41
2023-05-04T09:14:41.635Z,101276.06
2023-05-04T09:16:46.932Z,101273.50
2023-05-04T09:18:49.255Z,101272.69
2023-05-04T09:20:53.738Z,101282.34
2023-05-04T09:23:08.218Z,101277.19
2023-05-04T09:25:12.458Z,101260.00
2023-05-04T09:27:18.415Z,101256.59
2023-05-04T09:29:22.293Z,101271.38
2023-05-04T09:31:25.456Z,101273.16
2023-05-04T09:33:28.155Z,101247.22
2023-05-04T09:35:33.632Z,101255.09
2023-05-04T09:37:45.816Z,101257.72
2023-05-04T09:40:00.364Z,101248.22
2023-05-04T09:42:02.891Z,101242.22
2023-05-04T09:44:05.508Z,101234.38
2023-05-04T09:46:08.991Z,101236.13
2023-05-04T09:48:22.436Z,101234.41
2023-05-04T09:50:26.787Z,101241.34
2023-05-04T09:52:32.478Z,101245.69
2023-05-04T09:54:36.503Z,101250.88
2023-05-04T09:56:49.990Z,101250.03
2023-05-04T09:58:53.157Z,101250.94
2023-05-04T10:00:55.511Z,101241.41
2023-05-04T10:02:58.209Z,101234.50
2023-05-04T10:05:04.498Z,101219.72
2023-05-04T10:07:07.321Z,101224.94
2023-05-04T10:09:10.374Z,101229.25
2023-05-04T10:11:18.979Z,101214.47
2023-05-04T10:13:21.284Z,101211.81
2023-05-04T10:15:25.281Z,101212.66
2023-05-04T10:17:46.732Z,101208.31
2023-05-04T10:20:20.821Z,101211.75
2023-05-04T10:22:32.925Z,101197.00
2023-05-04T10:24:36.726Z,101202.25
2023-05-04T10:26:59.929Z,101191.72
2023-05-04T10:29:12.557Z,101179.56
2023-05-04T10:31:14.952Z,101169.94
2023-05-04T10:33:17.135Z,101163.72
2023-05-04T10:35:20.388Z,101169.84
2023-05-04T10:37:23.020Z,101155.75
2023-05-04T10:39:33.745Z,101153.91
2023-05-04T10:41:35.769Z,101157.31
2023-05-04T10:43:38.246Z,101155.44
2023-05-04T10:45:42.296Z,101155.22
2023-05-04T10:47:44.610Z,101156.81
2023-05-04T10:49:47.326Z,101153.22
2023-05-04T10:51:49.900Z,101146.22
2023-05-04T10:53:53.187Z,101150.44
2023-05-04T10:55:55.249Z,101135.78
2023-05-04T10:57:58.371Z,101135.66
2023-05-04T11:00:04.655Z,101136.66
2023-05-04T11:02:07.885Z,101137.53
2023-05-04T11:04:20.331Z,101135.63
2023-05-04T11:06:24.371Z,101135.13
2023-05-04T11:08:27.677Z,101131.59
2023-05-04T11:10:29.955Z,101128.84
2023-05-04T11:12:33.341Z,101138.50
2023-05-04T11:14:41.534Z,101143.09
2023-05-04T11:16:43.891Z,101145.31
2023-05-04T11:18:46.092Z,101143.59
2023-05-04T11:20:48.254Z,101146.78
2023-05-04T11:22:51.152Z,101131.22
2023-05-04T11:24:54.972Z,101135.91
2023-05-04T11:26:58.667Z,101129.91
2023-05-04T11:29:00.976Z,101123.31
2023-05-04T11:31:19.922Z,101121.06
2023-05-04T11:33:22.180Z,101107.97
2023-05-04T11:35:25.273Z,101103.63
2023-05-04T11:37:29.674Z,101088.69
2023-05-04T11:39:33.742Z,101087.00
2023-05-04T11:41:36.754Z,101075.78
2023-05-04T11:43:42.503Z,101092.28
2023-05-04T11:45:48.271Z,101077.47
2023-05-04T11:47:51.866Z,101077.41
2023-05-04T11:50:10.192Z,101086.16
2023-05-04T11:52:12.656Z,101101.91
2023-05-04T11:54:22.665Z,101106.19
2023-05-04T11:56:25.189Z,101090.50
2023-05-04T11:58:28.041Z,101093.13
2023-05-04T12:00:40.887Z,101070.50
2023-05-04T12:02:43.449Z,101064.44
2023-05-04T12:04:45.615Z,101067.78
2023-05-04T12:06:47.929Z,101067.63
2023-05-04T12:08:50.194Z,101042.47
2023-05-04T12:11:25.831Z,101041.34
2023-05-04T12:13:28.494Z,101058.53
2023-05-04T12:15:32.970Z,101048.88
2023-05-04T12:17:44.319Z,101046.44
2023-05-04T12:19:57.457Z,101026.22
2023-05-04T12:21:59.931Z,101020.53
2023-05-04T12:24:02.654Z,101014.06
2023-05-04T12:26:05.261Z,101003.69
2023-05-04T12:28:08.034Z,101014.66
2023-05-04T12:30:11.293Z,101022.59
2023-05-04T12:32:13.485Z,101039.06
2023-05-04T12:34:15.941Z,101042.75
2023-05-04T12:36:18.976Z,101048.03
2023-05-04T12:38:21.344Z,101052.28
2023-05-04T12:40:28.634Z,101050.28
2023-05-04T12:42:32.209Z,101049.38
2023-05-04T12:44:34.817Z,101060.31
2023-05-04T12:46:37.710Z,101074.03
2023-05-04T12:48:43.085Z,101087.97
2023-05-04T12:50:46.201Z,101103.81
2023-05-04T12:52:48.986Z,101113.38
2023-05-04T12:54:51.369Z,101110.81
2023-05-04T12:56:53.695Z,101108.44
2023-05-04T12:58:56.891Z,101108.44
2023-05-04T13:01:00.106Z,101097.13
2023-05-04T13:03:04.018Z,101102.31
2023-05-04T13:05:08.274Z,101096.25
2023-05-04T13:07:10.906Z,101084.09
2023-05-04T13:09:14.204Z,101077.91
2023-05-04T13:11:19.509Z,101047.56
2023-05-04T13:13:26.563Z,101043.47
2023-05-04T13:15:29.057Z,101028.59
2023-05-04T13:17:34.275Z,100989.41
2023-05-04T13:19:37.124Z,100984.16
2023-05-04T13:21:39.506Z,100969.34
2023-05-04T13:23:41.615Z,100962.53
2023-05-04T13:25:48.576Z,100965.47
2023-05-04T13:27:53.752Z,100973.59
2023-05-04T13:30:01.315Z,100967.34
2023-05-04T13:32:04.004Z,100962.22
2023-05-04T13:34:06.497Z,100982.84
2023-05-04T13:36:09.033Z,101000.38
2023-05-04T13:38:11.615Z,101045.75
2023-05-04T13:40:15.791Z,101060.66
2023-05-04T13:42:18.340Z,101064.22
2023-05-04T13:44:20.826Z,101033.81
2023-05-04T13:46:23.401Z,101018.13
2023-05-04T13:48:28.559Z,101022.47
2023-05-04T13:50:32.254Z,101030.31
2023-05-04T13:52:34.753Z,101025.09
2023-05-04T13:54:37.825Z,101020.72
2023-05-04T13:56:39.942Z,101028.50
2023-05-04T13:58:51.509Z,101038.06
2023-05-04T14:01:10.806Z,101027.63
2023-05-04T14:03:13.604Z,101016.38
2023-05-04T14:05:16.176Z,101004.25
2023-05-04T14:07:18.786Z,100998.94
2023-05-04T14:09:21.262Z,100994.81
2023-05-04T14:11:23.539Z,100994.69
2023-05-04T14:13:26.094Z,100998.91
2023-05-04T14:15:28.337Z,100987.63
2023-05-04T14:17:30.752Z,100987.69
2023-05-04T14:19:32.985Z,100989.53
2023-05-04T14:21:36.248Z,100997.38
2023-05-04T14:23:38.588Z,100993.13
2023-05-04T14:25:42.656Z,101001.03
2023-05-04T14:27:45.049Z,101004.53
2023-05-04T14:30:00.182Z,101015.03
2023-05-04T14:32:04.743Z,101021.94
2023-05-04T14:34:07.189Z,101035.00
2023-05-04T14:36:11.151Z,101043.59
2023-05-04T14:38:13.820Z,101053.09
2023-05-04T14:40:15.995Z,101048.53
2023-05-04T14:42:18.150Z,101048.56
2023-05-04T14:44:20.735Z,101042.41
2023-05-04T14:46:22.983Z,101034.44
2023-05-04T14:48:28.068Z,101035.22
2023-05-04T14:50:38.688Z,101037.81
2023-05-04T14:52:43.746Z,101030.88
2023-05-04T14:54:46.016Z,101028.03
2023-05-04T14:56:48.428Z,101022.63
2023-05-04T14:58:50.743Z,101018.16
2023-05-04T15:00:54.330Z,101012.00
2023-05-04T15:02:56.586Z,101013.72
2023-05-04T15:05:01.320Z,101015.28
2023-05-04T15:07:04.886Z,101024.25
2023-05-04T15:09:07.392Z,101013.78
2023-05-04T15:11:10.034Z,101025.09
2023-05-04T15:13:16.255Z,101018.84
2023-05-04T15:15:19.476Z,101027.41
2023-05-04T15:17:21.674Z,101016.44
2023-05-04T15:19:25.489Z,101016.66
2023-05-04T15:21:28.192Z,101014.78
2023-05-04T15:23:30.470Z,101013.56
2023-05-04T15:25:32.759Z,101008.56
2023-05-04T15:27:35.400Z,101010.47
2023-05-04T15:29:39.533Z,101008.47
2023-05-04T15:32:08.078Z,101009.81
2023-05-04T15:37:35.891Z,101008.53
2023-05-04T15:39:38.693Z,101021.16
2023-05-04T15:41:42.828Z,101006.25
2023-05-04T15:43:45.392Z,101006.25
2023-05-04T15:45:47.947Z,101009.91
2023-05-04T15:47:51.435Z,101015.91
2023-05-04T15:49:53.943Z,101004.53
2023-05-04T15:51:56.684Z,101007.03
2023-05-04T15:53:59.486Z,100998.34
2023-05-04T15:56:05.006Z,101003.47
2023-05-04T15:58:08.437Z,100995.53
2023-05-04T16:00:11.944Z,100997.19
2023-05-04T16:02:14.487Z,100996.97
2023-05-04T16:04:17.459Z,100992.34
2023-05-04T16:06:20.650Z,100988.81
2023-05-04T16:08:24.067Z,100987.91
2023-05-04T16:10:26.523Z,100991.72
2023-05-04T16:12:29.306Z,100989.94
2023-05-04T16:14:32.222Z,100994.16
2023-05-04T16:16:34.809Z,100986.19
2023-05-04T16:18:37.412Z,100986.25
2023-05-04T16:20:40.135Z,100981.84
2023-05-04T16:22:42.717Z,100989.84
2023-05-04T16:24:45.504Z,100994.38
2023-05-04T16:26:50.245Z,100986.75
2023-05-04T16:28:53.142Z,100994.56
2023-05-04T16:30:56.387Z,100990.34
2023-05-04T16:32:59.520Z,100986.09
2023-05-04T16:35:02.324Z,100978.28
2023-05-04T16:37:04.758Z,100979.88
2023-05-04T16:39:07.729Z,100985.94
2023-05-04T16:41:10.452Z,100973.03
2023-05-04T16:43:13.324Z,100971.97
2023-05-04T16:45:16.766Z,100967.50
2023-05-04T16:47:19.329Z,100977.03
2023-05-04T16:49:22.357Z,100975.97
2023-05-04T16:51:25.198Z,100971.53
2023-05-04T16:53:28.384Z,100977.69
2023-05-04T16:55:30.997Z,100973.31
2023-05-04T16:57:34.076Z,100969.72
2023-05-04T16:59:37.076Z,100979.53
2023-05-04T17:01:39.926Z,100974.19
2023-05-04T17:03:42.598Z,100974.72
2023-05-04T17:05:45.409Z,100977.66
2023-05-04T17:07:48.196Z,100969.81
2023-05-04T17:09:50.925Z,100968.88
2023-05-04T17:11:55.709Z,100976.81
2023-05-04T17:13:59.549Z,100980.03
2023-05-04T17:16:02.621Z,100978.19
2023-05-04T17:18:05.431Z,100984.41
2023-05-04T17:20:09.748Z,100982.84
2023-05-04T17:22:12.582Z,100977.66
2023-05-04T17:24:15.831Z,100970.00
2023-05-04T17:26:18.447Z,100975.91
2023-05-04T17:28:20.855Z,100972.47
2023-05-04T17:30:24.252Z,100974.38
2023-05-04T17:32:27.327Z,100986.59
2023-05-04T17:34:29.964Z,100975.22
2023-05-04T17:36:32.992Z,100978.88
2023-05-04T17:38:35.549Z,100974.47
2023-05-04T17:40:38.199Z,100981.41
2023-05-04T17:42:41.013Z,100979.75
2023-05-04T17:44:43.984Z,100989.69
2023-05-04T17:46:47.804Z,101003.50
2023-05-04T17:48:50.720Z,100993.06
2023-05-04T17:50:53.926Z,100990.53
2023-05-04T17:52:56.702Z,100992.31
2023-05-04T17:54:59.317Z,100999.19
2023-05-04T17:57:01.892Z,101005.19
2023-05-04T17:59:04.483Z,101008.06
2023-05-04T18:01:07.571Z,101002.03
2023-05-04T18:03:11.019Z,101008.31
2023-05-04T18:05:13.704Z,101003.09
2023-05-04T18:07:16.447Z,101017.88
2023-05-04T18:09:20.356Z,101004.88
2023-05-04T18:11:22.910Z,101001.44
2023-05-04T18:13:25.478Z,100997.88
2023-05-04T18:15:28.096Z,100999.44
2023-05-04T18:17:31.051Z,100997.84
2023-05-04T18:19:34.630Z,100996.88
2023-05-04T18:21:37.693Z,101002.16
2023-05-04T18:23:40.005Z,101005.88
2023-05-04T18:25:42.516Z,101012.00
2023-05-04T18:27:44.890Z,101007.50
2023-05-04T18:29:49.074Z,101024.03
2023-05-04T18:31:51.397Z,101021.53
2023-05-04T18:33:53.647Z,101025.94
2023-05-04T18:35:55.724Z,101028.69
2023-05-04T18:37:58.195Z,101024.28
2023-05-04T18:40:00.993Z,101023.31
2023-05-04T18:42:03.560Z,101025.06
2023-05-04T18:44:06.225Z,101027.69
2023-05-04T18:46:08.875Z,101033.72
2023-05-04T18:48:11.412Z,101039.91
2023-05-04T18:50:13.716Z,101038.16
2023-05-04T18:52:16.251Z,101052.06
2023-05-04T18:54:18.671Z,101053.91
2023-05-04T18:56:20.997Z,101048.69
2023-05-04T18:58:23.306Z,101054.78
2023-05-04T19:00:25.918Z,101055.63
2023-05-04T19:02:30.275Z,101065.25
2023-05-04T19:04:33.051Z,101086.13
2023-05-04T19:06:35.218Z,101065.31
2023-05-04T19:08:37.393Z,101062.69
2023-05-04T19:10:39.700Z,101054.88
2023-05-04T19:12:41.875Z,101064.44
2023-05-04T19:14:44.344Z,101068.78
2023-05-04T19:16:46.584Z,101066.19
2023-05-04T19:18:48.938Z,101064.47
2023-05-04T19:20:51.467Z,101074.00
2023-05-04T19:22:55.672Z,101075.72
2023-05-04T19:24:57.773Z,101073.13
2023-05-04T19:27:00.956Z,101072.25
2023-05-04T19:29:03.783Z,101076.63
2023-05-04T19:31:06.594Z,101080.94
2023-05-04T19:33:09.078Z,101077.47
2023-05-04T19:35:11.391Z,101074.00
2023-05-04T19:37:13.785Z,101081.81
2023-05-04T19:39:17.164Z,101074.88
2023-05-04T19:41:19.483Z,101082.69
2023-05-04T19:43:24.410Z,101085.25
2023-05-04T19:45:26.780Z,101091.38
2023-05-04T19:47:29.270Z,101084.41
2023-05-04T19:49:31.481Z,101086.13
2023-05-04T19:51:34.081Z,101086.13
2023-05-04T19:53:36.880Z,101099.16
2023-05-04T19:55:38.956Z,101096.56
2023-05-04T19:57:41.272Z,101101.75
2023-05-04T19:59:46.118Z,101093.09
2023-05-04T20:01:49.082Z,101090.50
2023-05-04T20:03:51.348Z,101111.31
2023-05-04T20:05:56.178Z,101106.97
2023-05-04T20:07:58.337Z,101114.78
2023-05-04T20:10:00.656Z,101106.13
2023-05-04T20:12:03.438Z,101111.28
2023-05-04T20:14:06.048Z,101117.38
2023-05-04T20:16:08.636Z,101114.75
2023-05-04T20:18:10.821Z,101116.53
2023-05-04T20:20:19.178Z,101118.22
2023-05-04T20:22:21.610Z,101119.97
2023-05-04T20:24:23.824Z,101123.44
2023-05-04T20:26:26.084Z,101119.97
2023-05-04T20:28:28.411Z,101120.81
2023-05-04T20:30:30.528Z,101114.78
2023-05-04T20:32:33.033Z,101127.75
2023-05-04T20:34:36.140Z,101124.28
2023-05-04T20:36:38.317Z,101119.94
2023-05-04T20:38:40.462Z,101122.50
2023-05-04T20:40:42.515Z,101123.38
2023-05-04T20:42:44.696Z,101121.69
2023-05-04T20:44:47.078Z,101122.50
2023-05-04T20:46:49.310Z,101126.00
2023-05-04T20:48:51.576Z,101130.28
2023-05-04T20:51:02.774Z,101125.06
2023-05-04T20:53:15.749Z,101122.47
2023-05-04T20:55:18.042Z,101126.81
2023-05-04T20:57:20.461Z,101118.03
2023-05-04T20:59:22.565Z,101125.81
2023-05-04T21:01:24.743Z,101122.41
2023-05-04T21:03:26.993Z,101121.53
2023-05-04T21:05:29.138Z,101118.84
2023-05-04T21:07:31.600Z,101118.03
2023-05-04T21:09:33.721Z,101119.69
2023-05-04T21:11:35.707Z,101121.50
2023-05-04T21:13:37.705Z,101121.47
2023-05-04T21:15:39.813Z,101115.44
2023-05-04T21:17:42.029Z,101120.63
2023-05-04T21:19:44.185Z,101137.03
2023-05-04T21:21:46.248Z,101144.81
2023-05-04T21:23:48.339Z,101138.72
2023-05-04T21:25:50.367Z,101139.56
2023-05-04T21:27:52.414Z,101137.03
2023-05-04T21:29:54.477Z,101137.91
2023-05-04T21:31:57.688Z,101144.81
2023-05-04T21:33:59.881Z,101143.09
2023-05-04T21:36:08.211Z,101142.19
2023-05-04T21:38:10.262Z,101139.53
2023-05-04T21:40:12.518Z,101136.94
2023-05-04T21:42:14.632Z,101136.06
2023-05-04T21:44:16.663Z,101130.81
2023-05-04T21:46:18.799Z,101136.06
2023-05-04T21:48:20.933Z,101133.53
2023-05-04T21:50:23.038Z,101129.19
2023-05-04T21:52:24.980Z,101135.16
2023-05-04T21:54:26.969Z,101125.63
2023-05-04T21:56:29.126Z,101130.75
2023-05-04T21:58:31.077Z,101119.59
2023-05-04T22:00:33.377Z,101126.59
2023-05-04T22:02:35.555Z,101121.31
2023-05-04T22:04:37.705Z,101114.44
2023-05-04T22:06:39.905Z,101109.16
2023-05-04T22:08:42.004Z,101118.66
2023-05-04T22:10:43.990Z,101113.47
2023-05-04T22:12:46.109Z,101110.00
2023-05-04T22:14:48.238Z,101111.75
2023-05-04T22:16:50.407Z,101113.44
2023-05-04T22:18:52.670Z,101116.03
2023-05-04T22:20:54.651Z,101121.25
2023-05-04T22:22:56.818Z,101112.38
2023-05-04T22:24:58.961Z,101112.47
2023-05-04T22:27:01.038Z,101108.91
2023-05-04T22:29:03.841Z,101108.03
2023-05-04T22:31:06.208Z,101119.38
2023-05-04T22:33:08.485Z,101118.41
2023-05-04T22:35:10.947Z,101117.66
2023-05-04T22:37:12.900Z,101116.78
2023-05-04T22:39:15.934Z,101119.44
2023-05-04T22:41:18.242Z,101122.06
2023-05-04T22:43:20.460Z,101122.03
2023-05-04T22:45:22.563Z,101128.72
2023-05-04T22:47:24.837Z,101130.50
2023-05-04T22:49:26.775Z,101131.38
2023-05-04T22:51:28.881Z,101137.38
2023-05-04T22:53:30.989Z,101138.22
2023-05-04T22:55:33.315Z,101138.16
2023-05-04T22:57:35.586Z,101139.84
2023-05-04T22:59:37.728Z,101149.28
2023-05-04T23:01:43.592Z,101149.19
2023-05-04T23:03:46.535Z,101147.38
2023-05-04T23:05:48.919Z,101150.13
2023-05-04T23:07:52.564Z,101148.41
2023-05-04T23:09:54.597Z,101142.28
2023-05-04T23:11:56.633Z,101141.34
2023-05-04T23:13:58.634Z,101140.31
2023-05-04T23:16:00.828Z,101149.84
2023-05-04T23:18:02.856Z,101146.41
2023-05-04T23:20:08.220Z,101150.72
2023-05-04T23:22:10.716Z,101153.19
2023-05-04T23:24:13.017Z,101148.94
2023-05-04T23:26:16.395Z,101143.88
2023-05-04T23:28:18.506Z,101150.59
2023-05-04T23:30:20.537Z,101156.63
2023-05-04T23:32:22.622Z,101150.59